Time;durP1;ratioP1;P1;durP2;ratioP2;P2;SDS_P1;SDS_P2;PMS_P1;PMS_P2;Temp;Humidity;BMP_temperature;BMP_pressure;BME280_temperature;BME280_humidity;BME280_pressure;Samples;Min_cycle;Max_cycle;Signal;HPM_P1;HPM_P2
2022/06/02 04:04:47;;;;;;;1.20;1.20;;;14.10;90.00;;;;;;5379909;23;20833;-69
2022/06/02 04:07:59;;;;;;;2.10;1.90;;;14.10;90.00;;;;;;4991527;28;20999;-70
2022/06/02 04:10:49;;;;;;;1.10;1.10;;;14.10;90.10;;;;;;4993729;28;20405;-69
2022/06/02 04:13:37;;;;;;;1.50;1.40;;;14.00;90.20;;;;;;4993587;28;20433;-69
2022/06/02 04:16:11;;;;;;;1.37;1.37;;;14.10;90.30;;;;;;4993856;28;20394;-69
2022/06/02 04:18:50;;;;;;;1.50;1.40;;;14.10;90.50;;;;;;4993257;28;20492;-69
2022/06/02 04:21:46;;;;;;;1.50;1.50;;;14.20;90.50;;;;;;4992493;28;20414;-68
2022/06/02 04:24:32;;;;;;;1.33;1.33;;;14.20;90.60;;;;;;4993225;28;20430;-70
2022/06/02 04:27:09;;;;;;;1.90;1.80;;;14.30;90.40;;;;;;4993460;28;20405;-70
2022/06/02 04:29:51;;;;;;;1.80;1.70;;;14.50;90.30;;;;;;4993226;28;20457;-69
2022/06/02 04:32:29;;;;;;;3.33;1.53;;;14.60;90.40;;;;;;4991554;28;20461;-68
2022/06/02 04:35:15;;;;;;;1.70;1.30;;;14.70;90.20;;;;;;4992592;28;20763;-69
2022/06/02 04:38:15;;;;;;;1.70;1.60;;;14.90;90.30;;;;;;4991961;28;20430;-70
2022/06/02 04:40:50;;;;;;;1.70;1.60;;;15.10;90.30;;;;;;4993505;28;20403;-70
2022/06/02 04:43:39;;;;;;;1.83;1.77;;;15.40;89.20;;;;;;4993058;28;20429;-70
2022/06/02 04:46:26;;;;;;;1.80;1.70;;;15.80;88.00;;;;;;4993760;28;20453;-69
2022/06/02 04:49:23;;;;;;;2.00;1.90;;;16.20;87.20;;;;;;4993457;28;20459;-69
2022/06/02 04:52:11;;;;;;;2.53;2.13;;;16.40;85.30;;;;;;4994080;28;20502;-69
2022/06/02 04:55:15;;;;;;;1.60;1.50;;;16.50;84.40;;;;;;4973911;28;20462;-69
2022/06/02 04:58:14;;;;;;;2.73;1.53;;;16.40;84.80;;;;;;4974386;28;20420;-69
2022/06/02 05:01:05;;;;;;;3.60;1.50;;;16.40;84.90;;;;;;4978242;28;20400;-68
2022/06/02 05:03:52;;;;;;;1.63;1.53;;;16.30;85.00;;;;;;4996211;28;20423;-68
2022/06/02 05:06:36;;;;;;;1.80;1.70;;;16.30;85.60;;;;;;4996565;28;20954;-68
2022/06/02 05:09:11;;;;;;;1.90;1.80;;;16.30;86.30;;;;;;4995391;28;20931;-69
2022/06/02 05:11:43;;;;;;;2.50;2.03;;;16.30;86.30;;;;;;4996519;28;20439;-71
2022/06/02 05:14:40;;;;;;;2.10;2.00;;;16.40;86.20;;;;;;4996042;28;20454;-71
2022/06/02 05:17:36;;;;;;;1.63;1.53;;;16.60;84.90;;;;;;4995918;28;20897;-69
2022/06/02 05:20:33;;;;;;;2.43;2.23;;;16.60;84.80;;;;;;4996216;28;20409;-69
2022/06/02 05:23:40;;;;;;;1.60;1.50;;;16.60;85.90;;;;;;4959922;28;20406;-67
2022/06/02 05:26:27;;;;;;;4.40;1.57;;;16.70;85.50;;;;;;4937064;29;20469;-73
2022/06/02 05:29:17;;;;;;;1.67;1.57;;;16.90;84.20;;;;;;4936599;29;20436;-71
2022/06/02 05:32:01;;;;;;;1.60;1.50;;;17.10;82.50;;;;;;4967441;28;20464;-71
2022/06/02 05:34:44;;;;;;;1.67;1.57;;;17.20;82.10;;;;;;4976672;28;20421;-70
2022/06/02 05:37:33;;;;;;;1.90;1.80;;;17.20;81.10;;;;;;4976218;28;20419;-71
2022/06/02 05:40:14;;;;;;;1.43;1.40;;;17.30;80.10;;;;;;4976636;28;20492;-71
2022/06/02 05:42:53;;;;;;;1.30;1.30;;;17.40;78.50;;;;;;4974732;28;20435;-72
2022/06/02 05:45:46;;;;;;;2.00;1.90;;;17.50;78.40;;;;;;4987335;28;20427;-72
2022/06/02 05:48:21;;;;;;;1.87;1.77;;;17.70;78.20;;;;;;4995494;28;20414;-73
2022/06/02 05:51:00;;;;;;;1.50;1.40;;;17.80;78.60;;;;;;4995680;28;20451;-72
2022/06/02 05:53:42;;;;;;;2.00;1.90;;;17.90;77.70;;;;;;4995263;28;20482;-71
2022/06/02 05:56:26;;;;;;;2.13;2.03;;;17.90;76.60;;;;;;4995667;28;20797;-73
2022/06/02 05:59:15;;;;;;;1.27;1.17;;;18.00;76.10;;;;;;4995356;28;20402;-70
2022/06/02 06:01:59;;;;;;;1.43;1.30;;;18.10;76.00;;;;;;4995965;28;20414;-71
2022/06/02 06:04:47;;;;;;;1.80;1.70;;;18.20;77.90;;;;;;4995210;28;20485;-71
2022/06/02 06:07:54;;;;;;;1.87;1.77;;;18.20;77.60;;;;;;4996079;28;20407;-72
2022/06/02 06:11:11;;;;;;;1.80;1.70;;;18.20;77.20;;;;;;4988937;28;20445;-71
2022/06/02 06:13:51;;;;;;;1.83;1.73;;;18.10;78.30;;;;;;4970078;28;20454;-71
2022/06/02 06:16:27;;;;;;;1.57;1.47;;;18.00;78.10;;;;;;4995467;28;20369;-70
2022/06/02 06:19:06;;;;;;;2.10;2.00;;;18.00;78.30;;;;;;4995018;28;20381;-70
2022/06/02 06:21:52;;;;;;;1.10;1.10;;;17.80;77.50;;;;;;4995497;28;20496;-72
2022/06/02 06:24:55;;;;;;;1.67;1.57;;;17.60;78.70;;;;;;4994859;28;20422;-71
2022/06/02 06:27:33;;;;;;;1.70;1.60;;;17.60;79.80;;;;;;4993842;28;20405;-72
2022/06/02 06:30:06;;;;;;;1.50;1.50;;;17.70;79.60;;;;;;4995296;28;20749;-71
2022/06/02 06:32:51;;;;;;;2.97;2.20;;;17.80;79.40;;;;;;4994757;28;21018;-70
2022/06/02 06:35:40;;;;;;;1.40;1.33;;;17.80;78.40;;;;;;4994630;28;20788;-71
2022/06/02 06:38:18;;;;;;;1.83;1.73;;;17.90;78.00;;;;;;4993805;28;20414;-71
2022/06/02 06:40:49;;;;;;;1.70;1.60;;;17.80;77.10;;;;;;4994763;28;20765;-70
2022/06/02 06:43:37;;;;;;;2.03;1.57;;;17.90;78.20;;;;;;4993915;28;20520;-69
2022/06/02 06:46:26;;;;;;;2.37;2.27;;;17.90;77.90;;;;;;4994526;28;20398;-70
2022/06/02 06:48:58;;;;;;;1.57;1.47;;;17.90;77.30;;;;;;4994188;28;20456;-69
2022/06/02 06:51:40;;;;;;;1.83;1.73;;;17.90;78.10;;;;;;4992985;28;20462;-69
2022/06/02 06:54:13;;;;;;;1.27;1.27;;;18.00;77.90;;;;;;4993886;28;20816;-70
2022/06/02 06:57:31;;;;;;;2.47;1.43;;;18.10;76.80;;;;;;4994476;28;20460;-69
2022/06/02 07:00:19;;;;;;;1.10;1.10;;;18.30;76.90;;;;;;4967645;28;20855;-69
2022/06/02 07:03:09;;;;;;;1.40;1.30;;;18.40;76.20;;;;;;4994304;28;20462;-70
2022/06/02 07:05:48;;;;;;;1.40;1.30;;;18.50;77.50;;;;;;4994448;28;20469;-70
2022/06/02 07:08:20;;;;;;;1.80;1.67;;;18.70;75.60;;;;;;4993280;28;20423;-70
2022/06/02 07:11:04;;;;;;;1.40;1.30;;;18.80;75.10;;;;;;4994433;28;20411;-71
2022/06/02 07:13:40;;;;;;;1.40;1.30;;;18.90;74.60;;;;;;4993585;28;20459;-70
2022/06/02 07:16:25;;;;;;;1.90;1.80;;;18.90;73.50;;;;;;4994133;28;20415;-70
2022/06/02 07:19:02;;;;;;;3.03;2.80;;;18.90;74.00;;;;;;4994109;28;20403;-70
2022/06/02 07:22:13;;;;;;;2.40;1.33;;;19.10;75.40;;;;;;4991180;28;20392;-69
2022/06/02 07:24:48;;;;;;;1.20;1.20;;;19.40;74.10;;;;;;4993467;28;20434;-70
2022/06/02 07:27:28;;;;;;;1.33;1.30;;;20.00;71.90;;;;;;4993564;28;20381;-70
2022/06/02 07:30:12;;;;;;;2.00;1.20;;;20.60;71.00;;;;;;4992635;28;20799;-68
2022/06/02 07:33:03;;;;;;;1.40;1.30;;;21.30;69.40;;;;;;4993235;28;20489;-69
2022/06/02 07:35:28;;;;;;;1.83;1.73;;;22.30;68.40;;;;;;4993578;28;20407;-69
2022/06/02 07:38:38;;;;;;;1.57;1.27;;;23.50;66.10;;;;;;4993582;28;20508;-68
2022/06/02 07:41:22;;;;;;;1.33;1.23;;;24.90;64.60;;;;;;4991417;28;20179;-67
2022/06/02 07:44:27;;;;;;;1.57;1.50;;;26.60;59.70;;;;;;4991895;28;20759;-66
2022/06/02 07:47:42;;;;;;;1.60;1.50;;;27.90;57.40;;;;;;4993491;28;20836;-67
2022/06/02 07:50:24;;;;;;;2.30;1.30;;;29.40;54.60;;;;;;4988105;28;20397;-66
2022/06/02 07:53:04;;;;;;;1.60;1.53;;;30.80;52.90;;;;;;4993357;28;20462;-66
2022/06/02 07:55:58;;;;;;;1.67;1.57;;;31.60;50.30;;;;;;4992892;28;20419;-69
2022/06/02 07:58:47;;;;;;;2.30;2.10;;;32.50;48.80;;;;;;4992729;28;20925;-67
2022/06/02 08:01:16;;;;;;;1.73;1.63;;;33.00;47.00;;;;;;4993720;28;20415;-68
2022/06/02 08:03:57;;;;;;;2.33;1.80;;;33.10;46.60;;;;;;4993152;28;20438;-66
2022/06/02 08:06:50;;;;;;;1.67;1.57;;;33.60;46.60;;;;;;4992996;28;20429;-68
2022/06/02 08:09:44;;;;;;;1.90;1.80;;;33.70;44.90;;;;;;4993220;28;20403;-67
2022/06/02 08:12:43;;;;;;;2.00;1.90;;;33.90;44.10;;;;;;4983877;28;20544;-66
2022/06/02 08:15:25;;;;;;;1.67;1.60;;;34.10;44.00;;;;;;4979738;28;20474;-67
2022/06/02 08:17:59;;;;;;;1.87;1.77;;;34.20;44.00;;;;;;4992766;28;20467;-65
2022/06/02 08:20:53;;;;;;;1.80;1.70;;;34.20;44.00;;;;;;4993624;28;20407;-67
2022/06/02 08:23:47;;;;;;;1.90;1.80;;;33.70;43.60;;;;;;4992950;28;20446;-70
2022/06/02 08:26:19;;;;;;;1.80;1.70;;;33.80;43.60;;;;;;4993537;28;20403;-66
2022/06/02 08:29:00;;;;;;;2.00;1.90;;;33.70;43.70;;;;;;4993329;28;20486;-66
2022/06/02 08:31:44;;;;;;;1.80;1.70;;;33.60;43.50;;;;;;4984077;28;20462;-66
2022/06/02 08:34:29;;;;;;;1.37;1.37;;;33.00;44.40;;;;;;4994101;28;20442;-67
2022/06/02 08:37:16;;;;;;;1.50;1.50;;;32.60;44.70;;;;;;4996253;28;20517;-68
2022/06/02 08:39:51;;;;;;;1.90;1.80;;;32.90;44.90;;;;;;4997018;28;20850;-66
2022/06/02 08:42:27;;;;;;;1.70;1.60;;;33.10;44.20;;;;;;4996522;28;20437;-66
2022/06/02 08:45:22;;;;;;;2.50;1.70;;;32.70;44.30;;;;;;4996730;28;20466;-66
2022/06/02 08:48:08;;;;;;;1.83;1.73;;;32.50;44.60;;;;;;4996055;28;20454;-67
2022/06/02 08:50:34;;;;;;;1.90;1.80;;;32.70;44.60;;;;;;4996663;28;20906;-69
2022/06/02 08:53:21;;;;;;;1.97;1.87;;;32.80;45.20;;;;;;4996505;28;20423;-72
2022/06/02 08:56:11;;;;;;;1.40;1.40;;;33.20;44.30;;;;;;4996773;28;20172;-71
2022/06/02 08:59:07;;;;;;;1.63;1.53;;;33.70;43.20;;;;;;4996580;28;20438;-71
2022/06/02 09:01:53;;;;;;;1.70;1.70;;;33.80;43.10;;;;;;4996545;28;20442;-72
2022/06/02 09:04:56;;;;;;;2.10;2.00;;;34.00;43.40;;;;;;4996029;28;20433;-70
2022/06/02 09:08:00;;;;;;;1.77;1.67;;;33.90;42.80;;;;;;4996345;28;20409;-70
2022/06/02 09:10:37;;;;;;;6.70;2.70;;;34.20;42.90;;;;;;4978763;28;20419;-70
2022/06/02 09:13:21;;;;;;;2.33;2.20;;;34.60;43.00;;;;;;4996013;28;20843;-69
2022/06/02 09:16:21;;;;;;;1.90;1.80;;;34.80;42.00;;;;;;4996379;28;20399;-70
2022/06/02 09:19:05;;;;;;;1.97;1.90;;;34.50;42.50;;;;;;4977092;28;20420;-71
2022/06/02 09:22:12;;;;;;;1.93;1.70;;;34.50;42.10;;;;;;4993492;28;20477;-70
2022/06/02 09:25:07;;;;;;;1.40;1.40;;;34.90;42.20;;;;;;4996410;28;20446;-70
2022/06/02 09:27:48;;;;;;;2.20;1.93;;;35.20;41.80;;;;;;4996460;28;20791;-71
2022/06/02 09:30:27;;;;;;;1.70;1.60;;;35.60;42.20;;;;;;4994897;28;20418;-71
2022/06/02 09:36:15;;;;;;;2.17;2.00;;;35.20;42.10;;;;;;4995279;28;20461;-71
2022/06/02 09:39:00;;;;;;;1.80;1.70;;;35.20;42.00;;;;;;4996238;28;20428;-71
2022/06/02 09:41:34;;;;;;;1.53;1.53;;;35.20;41.00;;;;;;4995925;28;20415;-72
2022/06/02 09:44:27;;;;;;;1.87;1.77;;;34.70;40.90;;;;;;4995025;28;20826;-71
2022/06/02 09:47:11;;;;;;;1.70;1.60;;;34.40;41.80;;;;;;4994291;28;20507;-71
2022/06/02 09:50:10;;;;;;;1.60;1.60;;;33.90;41.90;;;;;;4995949;28;20587;-69
2022/06/02 09:53:03;;;;;;;1.70;1.60;;;33.50;42.30;;;;;;4995557;28;20465;-69
2022/06/02 09:55:46;;;;;;;2.23;2.03;;;33.70;42.80;;;;;;4995626;28;20415;-72
2022/06/02 09:58:27;;;;;;;1.90;1.80;;;34.00;42.20;;;;;;4995583;28;20407;-71
2022/06/02 10:01:10;;;;;;;2.13;2.03;;;34.10;41.80;;;;;;4995184;28;20418;-70
2022/06/02 10:04:01;;;;;;;2.00;1.90;;;33.80;42.60;;;;;;4995092;28;20816;-71
2022/06/02 10:06:57;;;;;;;1.97;1.87;;;33.80;42.70;;;;;;4994375;28;20426;-73
2022/06/02 10:09:49;;;;;;;1.73;1.63;;;33.20;42.50;;;;;;4995717;28;20410;-71
2022/06/02 10:12:54;;;;;;;1.60;1.50;;;33.00;42.80;;;;;;4994845;28;20461;-74
2022/06/02 10:15:39;;;;;;;2.23;2.13;;;32.80;43.30;;;;;;4995324;28;20518;-71
2022/06/02 10:18:43;;;;;;;1.63;1.60;;;33.00;42.20;;;;;;4995420;28;20868;-72
2022/06/02 10:21:17;;;;;;;2.00;1.80;;;33.10;41.80;;;;;;4995170;28;20418;-70
2022/06/02 10:23:46;;;;;;;1.60;1.47;;;33.20;42.40;;;;;;4994542;28;20435;-71
2022/06/02 10:26:15;;;;;;;2.00;1.90;;;33.20;41.80;;;;;;4995415;28;20411;-70
2022/06/02 10:28:55;;;;;;;1.60;1.50;;;32.80;42.00;;;;;;4994913;28;20472;-71
2022/06/02 10:31:35;;;;;;;4.13;1.70;;;32.20;42.70;;;;;;4994978;28;20453;-71
2022/06/02 10:34:29;;;;;;;3.43;1.50;;;32.00;43.70;;;;;;4993475;28;20494;-71
2022/06/02 10:37:22;;;;;;;1.33;1.33;;;31.90;43.80;;;;;;4994896;28;20407;-71
2022/06/02 10:40:45;;;;;;;2.93;1.83;;;31.60;43.60;;;;;;4993509;28;20812;-70
2022/06/02 10:43:16;;;;;;;1.40;1.40;;;31.50;44.70;;;;;;4953621;29;20452;-68
2022/06/02 10:45:56;;;;;;;1.70;1.60;;;31.50;44.70;;;;;;4953897;29;20454;-67
2022/06/02 10:48:46;;;;;;;2.17;2.00;;;31.20;45.20;;;;;;4954067;29;20455;-68
2022/06/02 10:51:36;;;;;;;4.60;1.60;;;30.90;45.80;;;;;;4953862;29;20459;-66
2022/06/02 10:54:20;;;;;;;1.50;1.40;;;30.90;46.20;;;;;;4952946;29;20816;-67
2022/06/02 10:57:25;;;;;;;1.80;1.70;;;30.70;46.70;;;;;;4953608;28;20797;-67
2022/06/02 11:00:05;;;;;;;1.57;1.47;;;30.80;46.30;;;;;;4936362;29;20447;-67
2022/06/02 11:03:09;;;;;;;2.10;2.00;;;30.90;45.80;;;;;;4952668;29;20395;-68
2022/06/02 11:06:06;;;;;;;1.60;1.50;;;30.70;46.30;;;;;;4922055;29;20451;-66
2022/06/02 11:09:03;;;;;;;1.33;1.33;;;30.80;46.90;;;;;;4918140;29;20932;-67
2022/06/02 11:12:01;;;;;;;1.90;1.80;;;30.40;45.80;;;;;;4918390;29;20577;-67
2022/06/02 11:14:36;;;;;;;1.80;1.70;;;29.60;47.30;;;;;;4947261;28;20511;-68
2022/06/02 11:17:16;;;;;;;1.50;1.40;;;28.50;48.10;;;;;;4985629;28;20421;-68
2022/06/02 11:20:09;;;;;;;1.80;1.70;;;27.80;48.30;;;;;;4993170;28;20433;-69
2022/06/02 11:22:47;;;;;;;1.50;1.50;;;27.40;49.30;;;;;;4986197;28;20392;-67
2022/06/02 11:25:40;;;;;;;2.00;1.90;;;26.90;49.70;;;;;;4993849;28;20962;-68
2022/06/02 11:28:30;;;;;;;1.50;1.47;;;26.20;50.30;;;;;;4990234;28;20944;-68
2022/06/02 11:31:24;;;;;;;1.67;1.57;;;25.90;51.30;;;;;;4991299;28;20406;-68
2022/06/02 11:34:19;;;;;;;2.13;1.93;;;25.60;52.30;;;;;;4993107;28;20506;-68
2022/06/02 11:36:59;;;;;;;1.90;1.80;;;25.40;55.20;;;;;;5004112;28;20832;-68
2022/06/02 11:40:09;;;;;;;2.50;1.73;;;25.20;53.60;;;;;;5000823;28;20398;-67
2022/06/02 11:42:47;;;;;;;1.50;1.40;;;25.00;53.40;;;;;;4982967;28;20422;-61
2022/06/02 11:45:46;;;;;;;3.43;1.80;;;24.70;53.60;;;;;;4993866;28;20411;-61
2022/06/02 11:48:33;;;;;;;1.40;1.30;;;24.50;53.80;;;;;;4993745;28;20397;-61
2022/06/02 11:51:17;;;;;;;1.77;1.67;;;24.40;54.90;;;;;;4993320;28;20410;-68
2022/06/02 11:53:59;;;;;;;1.80;1.70;;;24.30;55.00;;;;;;4987502;28;20456;-65
2022/06/02 11:56:54;;;;;;;1.47;1.40;;;24.20;56.80;;;;;;4992867;28;20409;-66
2022/06/02 11:59:38;;;;;;;1.73;1.63;;;24.30;57.50;;;;;;5000552;28;20406;-67
2022/06/02 12:02:32;;;;;;;1.50;1.40;;;24.40;56.50;;;;;;4992784;28;20420;-67
2022/06/02 12:05:29;;;;;;;1.70;1.60;;;24.50;55.10;;;;;;4974270;28;20509;-62
2022/06/02 12:08:15;;;;;;;1.40;1.30;;;24.60;55.50;;;;;;4963547;28;20422;-62
2022/06/02 12:10:59;;;;;;;1.67;1.60;;;24.70;55.20;;;;;;4978069;28;20407;-65
2022/06/02 12:14:02;;;;;;;1.70;1.60;;;24.90;57.40;;;;;;4977854;28;20418;-64
2022/06/02 12:16:33;;;;;;;1.90;1.67;;;25.10;54.40;;;;;;4992872;28;20410;-65
2022/06/02 12:19:20;;;;;;;1.53;1.53;;;25.20;53.80;;;;;;4996620;28;20944;-62
2022/06/02 12:22:10;;;;;;;1.73;1.60;;;25.20;54.10;;;;;;4997123;28;20949;-62
2022/06/02 12:24:42;;;;;;;2.20;2.00;;;25.30;55.50;;;;;;4996736;28;20396;-64
2022/06/02 12:27:22;;;;;;;2.00;1.90;;;25.30;54.90;;;;;;4996840;28;20382;-64
2022/06/02 12:30:06;;;;;;;1.80;1.70;;;25.40;55.10;;;;;;4996802;28;20415;-63
2022/06/02 12:32:56;;;;;;;2.53;2.33;;;25.50;55.20;;;;;;4995912;28;20486;-62
2022/06/02 12:35:51;;;;;;;1.80;1.70;;;25.50;55.60;;;;;;4996646;28;20425;-65
2022/06/02 12:39:10;;;;;;;1.50;1.40;;;25.50;55.00;;;;;;4997065;28;20775;-63
2022/06/02 12:41:36;;;;;;;1.70;1.60;;;25.30;56.30;;;;;;4953732;28;20430;-62
2022/06/02 12:44:38;;;;;;;1.63;1.53;;;25.40;56.80;;;;;;4993400;28;20401;-65
2022/06/02 12:47:30;;;;;;;1.53;1.47;;;25.60;55.80;;;;;;4996839;28;20179;-63
2022/06/02 12:50:23;;;;;;;3.13;1.83;;;25.80;55.40;;;;;;4983490;28;20469;-65
2022/06/02 12:52:51;;;;;;;1.67;1.57;;;25.80;55.00;;;;;;4996677;28;20476;-62
2022/06/02 12:55:44;;;;;;;1.67;1.67;;;25.80;54.40;;;;;;4996659;28;20441;-62
2022/06/02 12:58:33;;;;;;;1.77;1.67;;;25.80;55.50;;;;;;4996421;28;20461;-63
2022/06/02 13:01:06;;;;;;;1.60;1.50;;;25.90;55.40;;;;;;4996722;28;20386;-63
2022/06/02 13:03:56;;;;;;;1.70;1.60;;;25.80;54.10;;;;;;4986404;28;20809;-65
2022/06/02 13:06:48;;;;;;;1.57;1.30;;;25.80;53.70;;;;;;4996330;28;20444;-62
2022/06/02 13:09:32;;;;;;;1.83;1.73;;;25.80;54.80;;;;;;4996031;28;20386;-62
2022/06/02 13:12:04;;;;;;;2.70;1.83;;;25.80;54.70;;;;;;4996225;28;20447;-61
2022/06/02 13:14:45;;;;;;;2.10;2.00;;;25.90;54.20;;;;;;4996335;28;20477;-62
2022/06/02 13:17:30;;;;;;;1.53;1.53;;;25.80;54.50;;;;;;4996145;28;20405;-62
2022/06/02 13:20:02;;;;;;;1.90;1.80;;;25.70;54.70;;;;;;4995630;28;20455;-63
2022/06/02 13:22:41;;;;;;;1.60;1.50;;;25.60;56.00;;;;;;4998052;28;20435;-65
2022/06/02 13:25:35;;;;;;;1.73;1.63;;;25.60;55.10;;;;;;5003944;28;20964;-65
2022/06/02 13:28:28;;;;;;;1.67;1.57;;;25.60;54.50;;;;;;4997972;28;20426;-65
2022/06/02 13:31:15;;;;;;;1.77;1.67;;;25.40;54.80;;;;;;5001299;28;20553;-63
2022/06/02 13:33:58;;;;;;;2.03;1.83;;;25.30;55.10;;;;;;4995663;28;20897;-63
2022/06/02 13:36:59;;;;;;;1.63;1.57;;;25.30;55.90;;;;;;4995986;28;20407;-63
2022/06/02 13:39:42;;;;;;;2.10;2.00;;;25.20;55.70;;;;;;4995619;28;20385;-64
2022/06/02 13:42:21;;;;;;;1.40;1.40;;;25.20;55.50;;;;;;4995490;28;20916;-63
2022/06/02 13:45:05;;;;;;;1.90;1.80;;;25.20;55.50;;;;;;4995734;28;20389;-62
2022/06/02 13:48:05;;;;;;;1.50;1.40;;;25.20;57.00;;;;;;4995634;28;20433;-65
2022/06/02 13:50:55;;;;;;;2.20;2.00;;;25.30;55.50;;;;;;4991265;28;20402;-63
2022/06/02 13:53:39;;;;;;;1.60;1.50;;;25.40;55.70;;;;;;4994114;28;20465;-64
2022/06/02 13:59:38;;;;;;;1.77;1.67;;;25.30;55.30;;;;;;4994964;28;20778;-62
2022/06/02 14:02:31;;;;;;;1.97;1.87;;;25.20;55.80;;;;;;4947789;28;20425;-61
2022/06/02 14:05:24;;;;;;;1.73;1.63;;;25.20;56.70;;;;;;4975945;28;20521;-63
2022/06/02 14:08:14;;;;;;;2.03;1.90;;;25.30;56.30;;;;;;4976137;28;20427;-64
2022/06/02 14:11:11;;;;;;;1.67;1.57;;;25.40;56.10;;;;;;4975872;28;20396;-62
2022/06/02 14:14:14;;;;;;;2.03;1.93;;;25.30;56.00;;;;;;4984649;28;20583;-62
2022/06/02 14:17:07;;;;;;;2.30;1.50;;;25.30;56.90;;;;;;4994933;28;20412;-61
2022/06/02 14:19:50;;;;;;;1.60;1.50;;;25.30;56.20;;;;;;4994954;28;20411;-63
2022/06/02 14:22:25;;;;;;;2.00;1.73;;;25.30;56.20;;;;;;4994342;28;20422;-63
2022/06/02 14:25:40;;;;;;;1.40;1.30;;;25.20;56.50;;;;;;4994758;28;20445;-62
2022/06/02 14:28:37;;;;;;;2.80;1.80;;;25.00;57.30;;;;;;4957491;28;20534;-64
2022/06/02 14:31:14;;;;;;;1.67;1.50;;;25.00;57.30;;;;;;4994351;28;20403;-63
2022/06/02 14:33:43;;;;;;;1.77;1.70;;;24.80;56.90;;;;;;4994084;28;20467;-64
2022/06/02 14:36:27;;;;;;;1.23;1.23;;;24.70;57.20;;;;;;4994717;28;20435;-63
2022/06/02 14:39:19;;;;;;;1.50;1.50;;;24.50;58.40;;;;;;4994104;28;20461;-64
2022/06/02 14:41:56;;;;;;;1.87;1.77;;;24.30;58.90;;;;;;4994827;28;20960;-64
2022/06/02 14:44:29;;;;;;;2.70;1.80;;;24.20;58.80;;;;;;4994046;28;20780;-64
2022/06/02 14:46:55;;;;;;;1.63;1.53;;;24.10;58.60;;;;;;4994259;28;20902;-65
2022/06/02 14:49:46;;;;;;;1.97;1.87;;;24.20;59.20;;;;;;4994217;28;20448;-65
2022/06/02 14:52:36;;;;;;;1.53;1.53;;;24.30;58.70;;;;;;4993552;28;20239;-66
2022/06/02 14:55:28;;;;;;;1.77;1.67;;;24.40;58.90;;;;;;4994251;28;20858;-64
2022/06/02 14:58:12;;;;;;;1.70;1.47;;;24.50;58.80;;;;;;4994209;28;20414;-63
2022/06/02 15:01:24;;;;;;;2.07;1.87;;;24.70;58.50;;;;;;4994097;28;20440;-64
2022/06/02 15:04:17;;;;;;;2.07;1.60;;;24.80;58.20;;;;;;4992458;28;20439;-64
2022/06/02 15:06:53;;;;;;;1.80;1.70;;;25.00;57.70;;;;;;4983381;28;20451;-65
2022/06/02 15:09:18;;;;;;;2.50;1.90;;;24.90;57.80;;;;;;4993861;28;20782;-64
2022/06/02 15:12:15;;;;;;;1.77;1.67;;;24.90;58.00;;;;;;4993939;28;20481;-65
2022/06/02 15:15:01;;;;;;;1.97;1.83;;;24.80;58.00;;;;;;4989880;28;20671;-65
2022/06/02 15:17:53;;;;;;;2.20;2.10;;;24.60;58.00;;;;;;4993958;28;20460;-65
2022/06/02 15:20:48;;;;;;;1.57;1.47;;;24.60;58.90;;;;;;4994033;28;20412;-63
2022/06/02 15:23:39;;;;;;;1.87;1.77;;;24.70;58.80;;;;;;4993655;28;20746;-63
2022/06/02 15:26:07;;;;;;;2.17;2.07;;;24.90;58.60;;;;;;4994373;28;20784;-62
2022/06/02 15:29:13;;;;;;;1.57;1.57;;;25.00;57.50;;;;;;4993646;28;20403;-63
2022/06/02 15:31:47;;;;;;;1.97;1.87;;;24.90;57.20;;;;;;4993996;28;20465;-62
2022/06/02 15:34:29;;;;;;;2.77;1.93;;;24.70;57.60;;;;;;4992988;28;20445;-65
2022/06/02 15:37:32;;;;;;;2.07;1.97;;;24.60;57.70;;;;;;4993934;28;20540;-65
2022/06/02 15:39:57;;;;;;;2.07;1.97;;;24.40;58.00;;;;;;4993698;28;20440;-65
2022/06/02 15:42:47;;;;;;;2.00;1.90;;;24.40;58.20;;;;;;4992911;28;20900;-66
2022/06/02 15:45:50;;;;;;;1.67;1.57;;;24.20;58.30;;;;;;4993579;28;20611;-63
2022/06/02 15:48:21;;;;;;;2.10;2.00;;;24.10;58.70;;;;;;4993123;28;20443;-63
2022/06/02 15:51:15;;;;;;;1.80;1.70;;;24.00;59.00;;;;;;4993539;28;20424;-64
2022/06/02 15:53:59;;;;;;;2.77;1.70;;;23.90;59.50;;;;;;4992923;28;20416;-65
2022/06/02 15:56:37;;;;;;;2.00;1.90;;;23.80;59.10;;;;;;4993650;28;20420;-63
2022/06/02 15:59:41;;;;;;;1.80;1.70;;;23.70;59.90;;;;;;4993507;28;20388;-64
2022/06/02 16:02:56;;;;;;;2.00;1.90;;;23.40;61.30;;;;;;4911916;29;20388;-64
2022/06/02 16:05:46;;;;;;;6.00;2.30;;;23.10;63.00;;;;;;4895757;29;20442;-61
2022/06/02 16:08:46;;;;;;;2.23;2.03;;;22.80;63.40;;;;;;4975916;28;20757;-62
2022/06/02 16:11:20;;;;;;;2.10;2.00;;;22.50;64.90;;;;;;4993176;28;20475;-63
2022/06/02 16:14:23;;;;;;;2.63;2.43;;;22.40;65.70;;;;;;4993180;28;20854;-61
2022/06/02 16:16:54;;;;;;;3.40;1.63;;;22.30;67.00;;;;;;4993331;28;20385;-62
2022/06/02 16:19:42;;;;;;;1.87;1.77;;;22.30;66.10;;;;;;4991966;28;20466;-62
2022/06/02 16:22:29;;;;;;;1.70;1.60;;;22.30;65.90;;;;;;4991311;28;20947;-62
2022/06/02 16:24:58;;;;;;;2.20;2.10;;;22.40;66.80;;;;;;4993368;28;20426;-65
2022/06/02 16:27:56;;;;;;;1.40;1.40;;;22.50;66.50;;;;;;4992357;28;20393;-66
2022/06/02 16:30:40;;;;;;;2.87;1.70;;;22.70;65.50;;;;;;4995633;28;20385;-64
2022/06/02 16:33:43;;;;;;;1.73;1.63;;;22.90;65.00;;;;;;4990987;28;20541;-62
2022/06/02 16:36:41;;;;;;;1.50;1.50;;;23.10;65.40;;;;;;4989781;28;20409;-65
2022/06/02 16:39:39;;;;;;;2.13;2.03;;;23.20;65.30;;;;;;4990663;28;20421;-66
2022/06/02 16:42:27;;;;;;;2.10;1.90;;;23.20;65.30;;;;;;4991593;28;20386;-66
2022/06/02 16:45:14;;;;;;;2.00;1.90;;;23.30;65.00;;;;;;4990387;28;20502;-66
2022/06/02 16:48:17;;;;;;;1.90;1.80;;;23.30;65.30;;;;;;4983272;28;20793;-66
2022/06/02 16:51:01;;;;;;;1.93;1.80;;;23.40;65.60;;;;;;4992805;28;20428;-66
2022/06/02 16:54:17;;;;;;;3.47;2.00;;;23.40;65.40;;;;;;4992183;28;20465;-65
2022/06/02 16:57:01;;;;;;;1.73;1.60;;;23.50;64.70;;;;;;4974184;28;20429;-65
2022/06/02 16:59:52;;;;;;;1.97;1.87;;;23.60;64.60;;;;;;4996748;28;20422;-69
2022/06/02 17:02:44;;;;;;;1.50;1.50;;;23.60;64.10;;;;;;4996643;28;21073;-71
2022/06/02 17:05:25;;;;;;;2.10;1.90;;;23.70;63.40;;;;;;4996281;28;20462;-69
2022/06/02 17:08:21;;;;;;;2.13;2.03;;;23.70;63.20;;;;;;4995746;28;20426;-71
2022/06/02 17:10:55;;;;;;;2.50;1.83;;;23.60;63.10;;;;;;4996820;28;20963;-70
2022/06/02 17:13:35;;;;;;;3.17;1.67;;;23.60;63.30;;;;;;4995991;28;20861;-71
2022/06/02 17:16:49;;;;;;;2.07;1.97;;;23.60;63.40;;;;;;4996177;28;20400;-69
2022/06/02 17:19:50;;;;;;;1.90;1.80;;;23.60;64.10;;;;;;4996661;28;20740;-70
2022/06/02 17:22:53;;;;;;;1.80;1.70;;;23.50;63.90;;;;;;4995963;28;20417;-72
2022/06/02 17:25:50;;;;;;;1.77;1.67;;;23.40;63.60;;;;;;4993987;28;20400;-72
2022/06/02 17:28:53;;;;;;;1.80;1.70;;;23.30;64.40;;;;;;4996058;28;20405;-73
2022/06/02 17:31:57;;;;;;;2.03;1.87;;;23.20;64.60;;;;;;4996149;28;20446;-73
2022/06/02 17:34:32;;;;;;;1.80;1.70;;;23.10;64.80;;;;;;4995657;28;20413;-72
2022/06/02 17:36:58;;;;;;;2.90;2.13;;;23.00;65.40;;;;;;4995959;28;20425;-70
2022/06/02 17:39:43;;;;;;;2.20;2.10;;;23.00;65.90;;;;;;4995265;28;20400;-69
2022/06/02 17:42:19;;;;;;;1.80;1.70;;;23.00;66.40;;;;;;4995626;28;20407;-70
2022/06/02 17:45:05;;;;;;;2.20;2.10;;;23.00;66.20;;;;;;4995581;28;20935;-71
2022/06/02 17:48:08;;;;;;;2.00;1.90;;;22.90;66.60;;;;;;4995637;28;20427;-70
2022/06/02 17:50:54;;;;;;;1.93;1.83;;;22.90;66.80;;;;;;4976352;28;20411;-74
2022/06/02 17:53:57;;;;;;;1.90;1.80;;;22.90;67.00;;;;;;4976012;28;20435;-66
2022/06/02 17:56:25;;;;;;;1.70;1.60;;;22.80;67.30;;;;;;4994316;28;20491;-66
2022/06/02 17:59:20;;;;;;;2.00;1.90;;;22.80;67.90;;;;;;4995556;28;21351;-70
2022/06/02 18:02:04;;;;;;;1.80;1.70;;;22.80;68.20;;;;;;4977669;28;20396;-65
2022/06/02 18:04:44;;;;;;;1.87;1.70;;;22.70;68.40;;;;;;4994946;28;20477;-66
2022/06/02 18:07:33;;;;;;;2.20;2.10;;;22.70;68.30;;;;;;4994778;28;20410;-64
2022/06/02 18:10:07;;;;;;;4.97;1.83;;;22.70;68.40;;;;;;4994263;28;20515;-65
2022/06/02 18:12:58;;;;;;;3.13;2.83;;;22.60;68.70;;;;;;4994977;28;20458;-67
2022/06/02 18:15:27;;;;;;;2.30;2.10;;;22.60;69.00;;;;;;4974942;28;20505;-66
2022/06/02 18:18:30;;;;;;;1.93;1.83;;;22.60;69.70;;;;;;4995088;28;20406;-66
2022/06/02 18:21:11;;;;;;;3.10;2.27;;;22.50;69.80;;;;;;4994040;28;20486;-68
2022/06/02 18:24:14;;;;;;;2.03;1.83;;;22.40;70.20;;;;;;4994140;28;21050;-68
2022/06/02 18:26:58;;;;;;;1.70;1.60;;;22.40;70.40;;;;;;4961689;28;20877;-66
2022/06/02 18:29:27;;;;;;;2.10;2.00;;;22.40;70.60;;;;;;4993466;28;20402;-67
2022/06/02 18:32:14;;;;;;;5.33;2.30;;;22.40;71.10;;;;;;4994742;28;20447;-68
2022/06/02 18:34:43;;;;;;;2.00;1.90;;;22.30;71.30;;;;;;4995159;28;20489;-67
2022/06/02 18:37:27;;;;;;;2.63;2.43;;;22.30;71.70;;;;;;4995079;28;20399;-68
2022/06/02 18:40:08;;;;;;;2.30;2.03;;;22.20;72.70;;;;;;4994780;28;20517;-68
2022/06/02 18:43:05;;;;;;;2.40;2.20;;;22.10;72.20;;;;;;4994456;28;20407;-68